Terminal Aerodrome Forecast
Issued by NWS Cleveland, OH

Home | Current Version | Previous Version | Text Only | Print | Product List | Glossary Off
Versions: 1 2 3 4 5 6 7 8 9 10 11 12 13

000
FTUS41 KCLE 010200 AAA
TAFERI
TAF AMD
KERI 010233Z 0103/0124 23004KT 5SM BR SCT090 OVC150
     FM010900 36004KT P6SM BKN200
     FM011400 35008KT P6SM FEW070 BKN250=

USA.gov is the U.S. government's official web portal to all federal, state and local government web resources and services.